Time;durP1;ratioP1;P1;durP2;ratioP2;P2;SDS_P1;SDS_P2;PMS_P1;PMS_P2;Temp;Humidity;BMP_temperature;BMP_pressure;BME280_temperature;BME280_humidity;BME280_pressure;Samples;Min_cycle;Max_cycle;Signal;HPM_P1;HPM_P2
2023/01/26 00:00:47;;;;;;;72.25;24.83;;;3.00;99.90;;;;;;4953201;29;20682;-84
2023/01/26 00:03:13;;;;;;;75.93;25.40;;;2.80;99.90;;;;;;4953306;29;20175;-84
2023/01/26 00:05:39;;;;;;;89.82;25.90;;;2.70;99.90;;;;;;4953028;29;20217;-84
2023/01/26 00:08:05;;;;;;;90.15;27.30;;;2.50;99.90;;;;;;4937529;29;20174;-87
2023/01/26 00:10:31;;;;;;;89.47;26.08;;;2.60;99.90;;;;;;4953405;29;20714;-84
2023/01/26 00:12:57;;;;;;;75.45;26.73;;;2.80;99.90;;;;;;4953527;29;20171;-82
2023/01/26 00:15:22;;;;;;;86.63;27.27;;;2.90;99.90;;;;;;4953136;28;20181;-82
2023/01/26 00:17:51;;;;;;;89.47;28.13;;;2.90;99.90;;;;;;4956961;29;20177;-85
2023/01/26 00:20:16;;;;;;;84.78;26.95;;;2.90;99.90;;;;;;4956660;29;20244;-82
2023/01/26 00:22:42;;;;;;;90.78;26.35;;;3.00;99.90;;;;;;4957909;29;20201;-85
2023/01/26 00:25:08;;;;;;;73.20;23.85;;;2.70;99.90;;;;;;4956946;29;20248;-84
2023/01/26 00:27:34;;;;;;;86.53;27.00;;;2.70;99.90;;;;;;4957883;28;20194;-84
2023/01/26 00:29:59;;;;;;;91.40;25.55;;;2.70;99.90;;;;;;4956415;29;20238;-82
2023/01/26 00:32:25;;;;;;;84.28;25.65;;;2.90;99.90;;;;;;4957308;29;20281;-85
2023/01/26 00:34:51;;;;;;;81.07;25.38;;;3.10;99.90;;;;;;4957530;29;20674;-85
2023/01/26 00:37:17;;;;;;;89.88;27.65;;;3.10;99.90;;;;;;4956851;29;20174;-82
2023/01/26 00:39:42;;;;;;;95.88;28.70;;;3.30;99.90;;;;;;4956653;29;20222;-82
2023/01/26 00:42:12;;;;;;;97.95;26.92;;;3.10;99.90;;;;;;4956339;29;20268;-85
2023/01/26 00:44:39;;;;;;;85.53;26.55;;;3.10;99.90;;;;;;4956408;29;20206;-81
2023/01/26 00:47:07;;;;;;;90.85;27.45;;;3.30;99.90;;;;;;4957489;28;20175;-85
2023/01/26 00:49:33;;;;;;;80.35;25.73;;;3.20;99.90;;;;;;4956364;29;20194;-84
2023/01/26 00:51:59;;;;;;;93.63;26.73;;;2.90;99.90;;;;;;4957737;28;20174;-86
2023/01/26 00:54:25;;;;;;;86.68;25.52;;;3.00;99.90;;;;;;4957282;28;20541;-82
2023/01/26 00:56:50;;;;;;;88.30;26.67;;;2.80;99.90;;;;;;4956134;29;20175;-83
2023/01/26 00:59:16;;;;;;;97.55;29.67;;;2.90;99.90;;;;;;4955798;29;20179;-84
2023/01/26 01:01:42;;;;;;;85.78;24.95;;;2.80;99.90;;;;;;4957510;29;20171;-81
2023/01/26 01:04:08;;;;;;;95.57;26.17;;;2.80;99.90;;;;;;4955881;29;20162;-81
2023/01/26 01:06:33;;;;;;;94.20;27.63;;;2.60;99.90;;;;;;4955517;29;20663;-81
2023/01/26 01:08:59;;;;;;;95.03;25.88;;;2.80;99.90;;;;;;4955610;29;20170;-82
2023/01/26 01:11:24;;;;;;;95.40;26.85;;;3.00;99.90;;;;;;4955950;29;20607;-83
2023/01/26 01:13:50;;;;;;;77.88;24.90;;;3.10;99.90;;;;;;4957279;29;20524;-84
2023/01/26 01:16:16;;;;;;;95.35;28.45;;;2.80;99.90;;;;;;4956182;29;20170;-84
2023/01/26 01:18:42;;;;;;;89.45;27.63;;;2.70;99.90;;;;;;4957209;29;20620;-82
2023/01/26 01:21:13;;;;;;;94.25;27.65;;;2.60;99.90;;;;;;4957674;28;20225;-83
2023/01/26 01:23:39;;;;;;;104.22;28.88;;;2.80;99.90;;;;;;4956102;29;20233;-83
2023/01/26 01:26:05;;;;;;;94.78;28.90;;;3.00;99.90;;;;;;4956018;29;20222;-84
2023/01/26 01:28:32;;;;;;;84.20;27.45;;;3.20;99.90;;;;;;4954715;28;20248;-82
2023/01/26 01:30:58;;;;;;;98.47;26.98;;;3.30;99.90;;;;;;4955936;29;20532;-84
2023/01/26 01:33:24;;;;;;;87.15;25.92;;;3.40;99.90;;;;;;4956996;29;20173;-83
2023/01/26 01:35:57;;;;;;;87.55;26.58;;;3.60;99.90;;;;;;4957054;29;20615;-82
2023/01/26 01:38:22;;;;;;;91.28;28.95;;;3.40;99.90;;;;;;4957281;28;20162;-81
2023/01/26 01:40:48;;;;;;;87.45;26.63;;;3.30;99.90;;;;;;4956295;29;20202;-81
2023/01/26 01:43:13;;;;;;;93.30;27.10;;;3.30;99.90;;;;;;4970949;29;20146;-79
2023/01/26 01:45:49;;;;;;;94.93;27.10;;;3.20;99.90;;;;;;4976147;28;20233;-81
2023/01/26 01:48:27;;;;;;;92.38;27.55;;;3.00;99.90;;;;;;4964837;28;20221;-81
2023/01/26 01:50:56;;;;;;;81.38;26.70;;;3.00;99.90;;;;;;4965772;28;20194;-82
2023/01/26 01:53:29;;;;;;;87.47;27.45;;;3.30;99.90;;;;;;4956788;29;20167;-81
2023/01/26 01:55:58;;;;;;;76.70;26.40;;;3.40;99.90;;;;;;4955024;29;20170;-81
2023/01/26 01:58:26;;;;;;;76.43;24.20;;;3.50;99.90;;;;;;4954993;29;20175;-82
2023/01/26 02:00:52;;;;;;;86.53;26.02;;;3.20;99.90;;;;;;4954893;29;20281;-83
2023/01/26 02:03:19;;;;;;;88.10;26.85;;;3.10;99.90;;;;;;4954699;29;20178;-82
2023/01/26 02:06:07;;;;;;;80.68;24.13;;;3.10;99.90;;;;;;4954444;29;20218;-82
2023/01/26 02:08:37;;;;;;;88.82;26.42;;;3.00;99.90;;;;;;4955979;28;20175;-82
2023/01/26 02:11:13;;;;;;;78.03;24.52;;;3.10;99.90;;;;;;4954185;29;20198;-82
2023/01/26 02:13:41;;;;;;;82.13;26.15;;;3.10;99.90;;;;;;4955771;28;20181;-83
2023/01/26 02:16:06;;;;;;;99.60;29.20;;;3.00;99.90;;;;;;4955663;28;20175;-82
2023/01/26 02:18:32;;;;;;;81.00;26.35;;;3.20;99.90;;;;;;4954131;29;20184;-83
2023/01/26 02:21:10;;;;;;;85.97;26.45;;;3.30;99.90;;;;;;4954305;29;20667;-81
2023/01/26 02:23:41;;;;;;;88.68;27.35;;;3.20;99.90;;;;;;4954385;29;20184;-82
2023/01/26 02:26:10;;;;;;;83.60;26.15;;;3.10;99.90;;;;;;4955201;29;20209;-82
2023/01/26 02:28:36;;;;;;;82.57;26.40;;;3.30;99.90;;;;;;4955132;28;20559;-82
2023/01/26 02:31:02;;;;;;;90.50;28.52;;;3.40;99.90;;;;;;4954000;29;20198;-81
2023/01/26 02:33:30;;;;;;;94.80;27.67;;;3.40;99.90;;;;;;4954017;29;20513;-81
2023/01/26 02:35:56;;;;;;;75.22;24.60;;;3.50;99.90;;;;;;4953961;29;20178;-83
2023/01/26 02:38:27;;;;;;;88.72;26.25;;;3.20;99.90;;;;;;4955554;28;20176;-82
2023/01/26 02:40:58;;;;;;;94.80;26.27;;;3.20;99.90;;;;;;4955580;28;20241;-81
2023/01/26 02:43:26;;;;;;;82.28;26.15;;;3.40;99.90;;;;;;4955714;28;20177;-83
2023/01/26 02:45:52;;;;;;;85.93;27.52;;;3.40;99.90;;;;;;4954198;29;20489;-83
2023/01/26 02:49:45;;;;;;;77.63;25.80;;;3.30;99.90;;;;;;4954586;29;20631;-83
2023/01/26 02:51:04;;;;;;;78.95;24.88;;;3.30;99.90;;;;;;4955221;29;20209;-82
2023/01/26 02:53:30;;;;;;;88.85;24.75;;;3.30;99.90;;;;;;4954160;29;20174;-83
2023/01/26 02:55:57;;;;;;;70.32;24.17;;;3.30;99.90;;;;;;4955632;28;20175;-85
2023/01/26 02:58:22;;;;;;;91.68;27.67;;;3.50;99.90;;;;;;4955490;29;20171;-82
2023/01/26 03:00:48;;;;;;;89.03;25.50;;;3.80;99.90;;;;;;4953390;29;20233;-84
2023/01/26 03:03:24;;;;;;;81.35;24.75;;;3.90;99.90;;;;;;4955176;29;20615;-82
2023/01/26 03:05:50;;;;;;;73.35;24.70;;;3.80;99.90;;;;;;4953825;29;20238;-84
2023/01/26 03:08:16;;;;;;;75.53;25.23;;;3.50;99.90;;;;;;4954271;29;20178;-82
2023/01/26 03:10:41;;;;;;;81.55;23.88;;;3.50;99.90;;;;;;4955372;29;20190;-82
2023/01/26 03:13:07;;;;;;;73.57;23.75;;;3.20;99.90;;;;;;4954259;29;20248;-82
2023/01/26 03:15:42;;;;;;;77.20;25.55;;;3.50;99.90;;;;;;4953871;29;20177;-82
2023/01/26 03:29:12;;;;;;;69.72;23.65;;;3.90;99.90;;;;;;4955761;29;20241;-83
2023/01/26 03:31:37;;;;;;;71.68;24.98;;;3.80;99.90;;;;;;4954379;29;20605;-85
2023/01/26 03:34:03;;;;;;;66.72;23.92;;;3.70;99.90;;;;;;4954331;29;20179;-85
2023/01/26 03:36:29;;;;;;;70.05;23.42;;;3.60;99.90;;;;;;4955116;29;20202;-83
2023/01/26 03:38:55;;;;;;;68.47;22.98;;;3.80;99.90;;;;;;4954055;29;20206;-86
2023/01/26 03:57:46;;;;;;;52.40;19.13;;;4.00;99.90;;;;;;4959715;29;20185;-84
2023/01/26 04:00:13;;;;;;;75.13;22.58;;;3.80;99.90;;;;;;4957514;29;20205;-84
2023/01/26 04:08:21;;;;;;;58.00;19.40;;;3.80;99.90;;;;;;4959191;29;20257;-85
2023/01/26 04:10:47;;;;;;;62.90;21.10;;;3.60;99.90;;;;;;4958623;28;20194;-84
2023/01/26 04:21:28;;;;;;;61.05;20.27;;;3.70;99.90;;;;;;4958962;29;20205;-82
2023/01/26 04:23:56;;;;;;;53.75;18.98;;;3.80;99.90;;;;;;4957615;29;20686;-84
2023/01/26 04:26:23;;;;;;;45.83;19.02;;;3.70;99.90;;;;;;4957834;29;20229;-82
2023/01/26 04:28:49;;;;;;;54.47;20.38;;;3.60;99.90;;;;;;4957426;29;20162;-82
2023/01/26 04:31:15;;;;;;;53.72;20.30;;;3.40;99.90;;;;;;4958405;28;20193;-83
2023/01/26 04:33:41;;;;;;;60.30;20.10;;;3.70;99.90;;;;;;4957996;28;20170;-83
2023/01/26 04:36:08;;;;;;;61.78;19.48;;;3.70;99.90;;;;;;4956867;29;20174;-82
2023/01/26 04:38:34;;;;;;;51.83;19.73;;;3.70;99.90;;;;;;4957028;29;20183;-85
2023/01/26 04:40:59;;;;;;;53.80;19.15;;;3.90;99.90;;;;;;4958409;28;20189;-82
2023/01/26 04:43:26;;;;;;;49.38;17.67;;;3.70;99.90;;;;;;4958865;29;20178;-81
2023/01/26 04:46:04;;;;;;;55.10;19.30;;;3.70;99.90;;;;;;4967058;29;20229;-80
2023/01/26 04:48:30;;;;;;;50.60;17.45;;;3.70;99.90;;;;;;4970798;29;20674;-80
2023/01/26 04:50:57;;;;;;;59.03;20.27;;;3.60;99.90;;;;;;4960774;29;20654;-81
2023/01/26 04:53:23;;;;;;;58.10;19.40;;;3.60;99.90;;;;;;4956524;29;20179;-84
2023/01/26 04:55:49;;;;;;;54.88;18.88;;;3.70;99.90;;;;;;4956618;29;20226;-82
2023/01/26 04:58:15;;;;;;;47.97;17.27;;;3.80;99.90;;;;;;4957742;29;20687;-82
2023/01/26 05:00:40;;;;;;;55.25;19.38;;;3.70;99.90;;;;;;4955999;29;20728;-83
2023/01/26 05:03:06;;;;;;;54.65;18.60;;;3.60;99.90;;;;;;4956495;28;20580;-83
2023/01/26 05:05:38;;;;;;;47.92;16.00;;;3.40;99.90;;;;;;4956051;29;20317;-81
2023/01/26 05:08:05;;;;;;;46.05;18.05;;;3.50;99.90;;;;;;4957174;28;20179;-82
2023/01/26 05:10:31;;;;;;;51.92;17.38;;;3.70;99.90;;;;;;4955866;29;20197;-83
2023/01/26 05:12:58;;;;;;;57.15;20.05;;;3.80;99.90;;;;;;4957444;28;20253;-82
2023/01/26 05:15:23;;;;;;;54.28;18.40;;;3.90;99.90;;;;;;4955956;29;20187;-83
2023/01/26 05:17:49;;;;;;;48.33;17.08;;;3.90;99.90;;;;;;4957080;29;20179;-82
2023/01/26 05:20:15;;;;;;;61.08;19.52;;;3.80;99.90;;;;;;4956863;29;20547;-85
2023/01/26 05:22:41;;;;;;;47.55;17.13;;;3.80;99.90;;;;;;4955668;29;20601;-82
2023/01/26 05:25:07;;;;;;;48.65;17.00;;;3.60;99.90;;;;;;4955224;29;20248;-82
2023/01/26 05:27:32;;;;;;;49.15;16.77;;;3.70;99.90;;;;;;4956607;29;20233;-81
2023/01/26 05:30:01;;;;;;;49.58;18.02;;;3.80;99.90;;;;;;4955679;29;20190;-82
2023/01/26 05:32:30;;;;;;;44.10;16.13;;;4.00;99.90;;;;;;4954958;29;20216;-83
2023/01/26 05:34:56;;;;;;;50.38;17.50;;;4.10;99.90;;;;;;4955271;29;20173;-82
2023/01/26 05:37:26;;;;;;;45.20;16.40;;;4.00;99.90;;;;;;4957039;28;20244;-86
2023/01/26 05:39:52;;;;;;;47.67;17.05;;;3.90;99.90;;;;;;4956447;28;20249;-83
2023/01/26 05:42:18;;;;;;;45.60;16.33;;;3.90;99.90;;;;;;4955256;29;20174;-84
2023/01/26 05:44:43;;;;;;;54.92;17.63;;;4.10;99.90;;;;;;4955307;28;20326;-82
2023/01/26 05:47:09;;;;;;;42.05;15.60;;;4.00;99.90;;;;;;4955040;29;20197;-83
2023/01/26 05:49:37;;;;;;;56.80;17.40;;;4.10;99.90;;;;;;4954932;29;20198;-83
2023/01/26 05:52:17;;;;;;;40.55;16.15;;;4.10;99.90;;;;;;4954985;29;20170;-82
2023/01/26 05:54:43;;;;;;;43.55;15.55;;;3.80;99.90;;;;;;4955713;29;20975;-86
2023/01/26 05:57:08;;;;;;;43.25;15.55;;;3.70;99.90;;;;;;4957085;28;20167;-83
2023/01/26 05:59:34;;;;;;;41.97;14.02;;;3.60;99.90;;;;;;4954578;29;20198;-84
2023/01/26 06:02:00;;;;;;;42.08;15.45;;;3.50;99.90;;;;;;4956445;29;20184;-83
2023/01/26 06:04:26;;;;;;;38.70;15.30;;;3.50;99.90;;;;;;4954636;29;20612;-82
2023/01/26 06:06:56;;;;;;;43.97;15.32;;;3.90;99.90;;;;;;4955746;28;20550;-84
2023/01/26 06:09:22;;;;;;;38.17;15.52;;;3.80;99.90;;;;;;4954725;29;20175;-84
2023/01/26 06:11:47;;;;;;;39.97;16.02;;;3.70;99.90;;;;;;4955140;29;20649;-86
2023/01/26 06:14:13;;;;;;;40.65;14.68;;;3.70;99.90;;;;;;4953573;28;20656;-82
2023/01/26 06:16:39;;;;;;;41.25;14.50;;;3.70;99.90;;;;;;4955754;29;20198;-83
2023/01/26 06:19:05;;;;;;;37.58;14.90;;;3.70;99.90;;;;;;4954759;29;20628;-83
2023/01/26 06:21:31;;;;;;;37.40;15.05;;;3.90;99.90;;;;;;4954281;29;20191;-83
2023/01/26 06:23:57;;;;;;;32.33;13.75;;;4.00;99.90;;;;;;4954445;29;20530;-84
2023/01/26 06:26:23;;;;;;;37.13;13.25;;;3.90;99.90;;;;;;4955537;28;20234;-84
2023/01/26 06:28:50;;;;;;;40.17;14.02;;;3.90;99.90;;;;;;4955878;28;20202;-83
2023/01/26 06:31:16;;;;;;;32.17;13.18;;;4.20;99.90;;;;;;4953971;29;20195;-84
2023/01/26 06:33:42;;;;;;;35.67;12.85;;;4.20;99.90;;;;;;4955711;29;20197;-83
2023/01/26 06:36:10;;;;;;;33.15;14.23;;;4.20;99.90;;;;;;4954858;29;20273;-85
2023/01/26 06:38:36;;;;;;;33.40;12.65;;;3.90;99.90;;;;;;4955866;28;20170;-84
2023/01/26 06:41:04;;;;;;;33.80;13.30;;;3.90;99.90;;;;;;4956318;28;20187;-82
2023/01/26 06:43:31;;;;;;;26.85;11.77;;;3.90;99.90;;;;;;4956656;28;20206;-83
2023/01/26 06:45:57;;;;;;;33.70;13.93;;;4.10;99.90;;;;;;4954863;29;20643;-83
2023/01/26 06:48:28;;;;;;;34.25;13.93;;;3.90;99.90;;;;;;4956643;28;20181;-83
2023/01/26 06:50:56;;;;;;;22.27;11.15;;;4.00;99.90;;;;;;4954607;29;20552;-83
2023/01/26 06:53:34;;;;;;;29.90;12.30;;;4.20;99.90;;;;;;4955542;29;20511;-82
2023/01/26 06:56:00;;;;;;;28.35;12.05;;;4.30;99.90;;;;;;4954728;29;20245;-82
2023/01/26 06:58:26;;;;;;;19.75;10.50;;;4.30;99.90;;;;;;4955824;28;20178;-82
2023/01/26 07:00:51;;;;;;;29.85;12.70;;;4.20;99.90;;;;;;4954205;29;20190;-83
2023/01/26 07:03:17;;;;;;;27.35;11.25;;;4.30;99.90;;;;;;4954398;29;20175;-83
2023/01/26 07:05:43;;;;;;;26.58;11.13;;;4.20;99.90;;;;;;4953686;29;20210;-82
2023/01/26 07:08:12;;;;;;;27.73;11.32;;;4.20;99.90;;;;;;4966006;29;20178;-83
2023/01/26 07:10:41;;;;;;;24.70;11.35;;;4.20;99.90;;;;;;4974933;29;20182;-85
2023/01/26 07:13:13;;;;;;;24.55;11.52;;;4.00;99.90;;;;;;4973821;29;20261;-82
2023/01/26 07:15:42;;;;;;;21.83;10.35;;;4.10;99.90;;;;;;4961801;29;20166;-83
2023/01/26 07:18:08;;;;;;;21.02;9.93;;;4.10;99.90;;;;;;4975753;28;20229;-81
2023/01/26 07:20:36;;;;;;;31.60;11.85;;;4.30;99.90;;;;;;4969707;29;20219;-82
2023/01/26 07:23:01;;;;;;;27.73;10.65;;;4.50;99.90;;;;;;4954932;28;20202;-83
2023/01/26 07:25:31;;;;;;;28.65;11.27;;;4.50;99.90;;;;;;4962807;28;20194;-82
2023/01/26 07:27:58;;;;;;;25.65;12.23;;;4.60;99.90;;;;;;4963533;29;20182;-84
2023/01/26 07:30:26;;;;;;;30.20;11.85;;;4.50;99.90;;;;;;4969044;29;20542;-81
2023/01/26 07:32:59;;;;;;;30.05;12.65;;;4.60;99.90;;;;;;4964599;29;20194;-83
2023/01/26 07:35:25;;;;;;;27.73;11.32;;;4.40;99.90;;;;;;4972445;28;20532;-82
2023/01/26 07:37:51;;;;;;;41.40;12.98;;;4.60;99.90;;;;;;4973358;29;20177;-82
2023/01/26 07:40:33;;;;;;;36.20;13.80;;;4.70;99.90;;;;;;4973643;29;20206;-81
2023/01/26 07:43:06;;;;;;;33.65;12.20;;;4.60;99.90;;;;;;4973305;29;20190;-83
2023/01/26 07:45:51;;;;;;;32.17;12.63;;;4.50;99.90;;;;;;4969810;29;20210;-80
2023/01/26 07:48:46;;;;;;;27.30;12.10;;;4.40;99.90;;;;;;4969864;29;20218;-81
2023/01/26 07:51:15;;;;;;;28.25;12.18;;;4.60;99.90;;;;;;4964589;28;20202;-82
2023/01/26 07:53:57;;;;;;;32.60;12.93;;;4.40;99.90;;;;;;4973203;29;20170;-81
2023/01/26 07:56:34;;;;;;;31.58;12.57;;;4.30;99.90;;;;;;4971817;29;20182;-81
2023/01/26 07:59:00;;;;;;;35.05;13.60;;;4.40;99.90;;;;;;4963033;29;20237;-81
2023/01/26 08:01:26;;;;;;;35.63;13.27;;;4.50;99.90;;;;;;4957349;29;20675;-81
2023/01/26 08:03:54;;;;;;;31.83;12.90;;;4.40;99.90;;;;;;4958288;29;20585;-83
2023/01/26 08:06:29;;;;;;;36.45;12.98;;;4.40;99.90;;;;;;4946984;29;20218;-83
2023/01/26 08:09:02;;;;;;;38.17;13.25;;;4.30;99.90;;;;;;4969769;29;20162;-82
2023/01/26 08:11:49;;;;;;;43.72;14.77;;;4.50;99.90;;;;;;4972094;29;20217;-81
2023/01/26 08:14:22;;;;;;;33.60;13.32;;;4.80;99.90;;;;;;4974626;29;20186;-81
2023/01/26 08:17:00;;;;;;;44.38;13.70;;;4.70;99.90;;;;;;4974671;29;20190;-82
2023/01/26 08:19:26;;;;;;;36.60;13.38;;;4.60;99.90;;;;;;4970976;29;20158;-79
2023/01/26 08:21:56;;;;;;;29.65;13.93;;;4.60;99.90;;;;;;4971512;29;20190;-79
2023/01/26 08:24:28;;;;;;;34.28;13.23;;;4.80;99.90;;;;;;4962799;28;20190;-83
2023/01/26 08:26:54;;;;;;;38.78;14.73;;;4.70;99.90;;;;;;4969770;28;20206;-79
2023/01/26 08:29:20;;;;;;;36.70;13.68;;;4.70;99.90;;;;;;4970679;28;20182;-88
2023/01/26 08:31:48;;;;;;;43.85;15.23;;;4.70;99.90;;;;;;4973808;29;20186;-89
2023/01/26 08:34:14;;;;;;;40.03;13.70;;;4.40;99.90;;;;;;4970308;29;20166;-85
2023/01/26 08:36:40;;;;;;;35.80;13.57;;;4.70;99.90;;;;;;4969582;28;20187;-78
2023/01/26 08:39:06;;;;;;;37.55;13.50;;;4.60;99.90;;;;;;4974193;29;20182;-87
2023/01/26 08:41:32;;;;;;;28.70;12.82;;;4.70;99.90;;;;;;4969515;29;20218;-80
2023/01/26 08:43:58;;;;;;;36.25;13.02;;;4.70;99.90;;;;;;4969905;28;20261;-87
2023/01/26 08:46:25;;;;;;;36.17;13.27;;;4.80;99.90;;;;;;4968951;28;20596;-77
2023/01/26 08:48:51;;;;;;;32.08;12.82;;;5.00;99.90;;;;;;4974660;28;20167;-83
2023/01/26 08:51:18;;;;;;;44.10;13.95;;;5.00;99.90;;;;;;4972547;29;20266;-82
2023/01/26 08:53:44;;;;;;;38.42;13.57;;;5.00;99.90;;;;;;4979838;28;20181;-78
2023/01/26 08:56:12;;;;;;;34.53;13.15;;;5.00;99.90;;;;;;4995526;28;20246;-79
2023/01/26 08:58:39;;;;;;;34.08;13.85;;;4.80;99.90;;;;;;4995971;28;20158;-88
2023/01/26 09:01:10;;;;;;;32.67;13.00;;;4.80;99.90;;;;;;4972669;28;20190;-88
2023/01/26 09:03:36;;;;;;;33.92;13.38;;;4.80;99.90;;;;;;4967774;28;20179;-84
2023/01/26 09:06:05;;;;;;;38.33;13.45;;;5.00;99.90;;;;;;4963112;28;20212;-88
2023/01/26 09:08:32;;;;;;;28.45;12.30;;;4.90;99.90;;;;;;4967569;28;20221;-86
2023/01/26 09:10:59;;;;;;;28.67;12.45;;;5.20;99.90;;;;;;4972799;28;20201;-84
2023/01/26 09:13:24;;;;;;;34.58;12.75;;;5.40;99.90;;;;;;4978381;28;20236;-87
2023/01/26 09:15:50;;;;;;;30.73;11.55;;;5.20;99.90;;;;;;4978817;28;20639;-86
2023/01/26 09:18:16;;;;;;;32.88;11.35;;;5.40;99.90;;;;;;4977465;28;20193;-85
2023/01/26 09:20:43;;;;;;;30.75;12.32;;;5.30;99.90;;;;;;4975588;28;20256;-87
2023/01/26 09:23:10;;;;;;;26.15;11.90;;;5.50;99.90;;;;;;4977971;28;20205;-84
2023/01/26 09:25:36;;;;;;;21.13;10.07;;;5.70;99.90;;;;;;4978549;28;20216;-80
2023/01/26 09:28:03;;;;;;;27.13;10.82;;;5.70;99.90;;;;;;4959604;28;20257;-80
2023/01/26 09:30:28;;;;;;;21.50;10.60;;;5.60;99.90;;;;;;4960369;28;20187;-86
2023/01/26 09:32:58;;;;;;;22.15;11.05;;;5.70;99.90;;;;;;4960510;28;20577;-86
2023/01/26 09:35:25;;;;;;;20.95;9.82;;;5.70;99.90;;;;;;4958760;28;20190;-88
2023/01/26 09:37:50;;;;;;;20.63;9.93;;;5.70;99.90;;;;;;4965107;28;20716;-85
2023/01/26 09:40:26;;;;;;;15.40;8.70;;;5.60;99.90;;;;;;4972826;28;20190;-85
2023/01/26 09:43:21;;;;;;;22.73;9.20;;;5.20;99.90;;;;;;4971070;28;20174;-84
2023/01/26 09:46:15;;;;;;;16.38;9.10;;;5.30;99.90;;;;;;4967841;28;20584;-83
2023/01/26 09:49:07;;;;;;;14.73;8.30;;;5.40;99.90;;;;;;4970259;28;20228;-84
2023/01/26 09:51:37;;;;;;;13.77;8.93;;;5.00;99.90;;;;;;4984668;28;20522;-84
2023/01/26 09:54:11;;;;;;;17.30;8.25;;;4.90;99.90;;;;;;4964061;28;20714;-78
2023/01/26 09:56:37;;;;;;;14.77;8.35;;;5.20;99.90;;;;;;4964568;28;20179;-85
2023/01/26 09:59:16;;;;;;;22.08;8.98;;;5.40;99.90;;;;;;4995117;28;20190;-79
2023/01/26 10:01:54;;;;;;;14.32;8.73;;;5.40;99.90;;;;;;4982249;28;20556;-77
2023/01/26 10:04:42;;;;;;;16.88;8.85;;;5.50;99.90;;;;;;4972140;29;20174;-78
2023/01/26 10:07:14;;;;;;;17.63;9.38;;;5.40;99.90;;;;;;4995974;28;20256;-78
2023/01/26 10:09:44;;;;;;;17.02;10.02;;;5.30;99.90;;;;;;4994085;28;20317;-79
2023/01/26 10:12:21;;;;;;;19.17;10.95;;;5.30;99.90;;;;;;4963289;28;20175;-82
2023/01/26 10:15:20;;;;;;;20.73;10.75;;;5.30;99.90;;;;;;4960406;29;20225;-83
2023/01/26 10:17:46;;;;;;;23.02;10.65;;;5.30;99.90;;;;;;4987395;28;20185;-83
2023/01/26 10:20:31;;;;;;;19.95;10.45;;;5.30;99.90;;;;;;4989904;28;20220;-82
2023/01/26 10:23:02;;;;;;;35.38;11.05;;;5.60;99.90;;;;;;4980676;28;20220;-85
2023/01/26 10:25:39;;;;;;;30.67;11.32;;;5.80;99.90;;;;;;4982569;28;20205;-80
2023/01/26 10:28:11;;;;;;;24.58;10.93;;;6.00;99.90;;;;;;4987266;28;20173;-78
2023/01/26 10:30:39;;;;;;;23.40;11.43;;;5.50;99.90;;;;;;4995781;28;20657;-78
2023/01/26 10:33:13;;;;;;;37.75;11.95;;;5.60;99.90;;;;;;4992693;28;20173;-80
2023/01/26 10:35:38;;;;;;;31.95;11.48;;;5.60;99.90;;;;;;4960305;28;20178;-82
2023/01/26 10:38:33;;;;;;;24.48;11.50;;;5.80;99.90;;;;;;4976302;28;20193;-82
2023/01/26 10:41:04;;;;;;;28.60;11.18;;;5.90;99.90;;;;;;5012081;28;20193;-79
2023/01/26 10:43:40;;;;;;;31.90;12.32;;;6.00;99.90;;;;;;4996439;28;20251;-81
2023/01/26 10:46:40;;;;;;;39.97;13.80;;;5.80;99.90;;;;;;5000955;28;20216;-80
2023/01/26 10:49:08;;;;;;;36.97;14.02;;;5.40;99.90;;;;;;4955457;28;20186;-79
2023/01/26 10:51:38;;;;;;;37.15;12.82;;;5.30;99.90;;;;;;4956215;28;20175;-77
2023/01/26 10:54:25;;;;;;;38.10;13.23;;;5.40;99.90;;;;;;4958112;29;20277;-81
2023/01/26 10:56:58;;;;;;;37.88;13.38;;;5.60;99.90;;;;;;4960524;28;20167;-80
2023/01/26 10:59:23;;;;;;;49.13;15.32;;;5.60;99.90;;;;;;4973380;28;20173;-77
2023/01/26 11:01:59;;;;;;;48.63;13.43;;;5.80;99.90;;;;;;4972557;28;20188;-78
2023/01/26 11:04:25;;;;;;;44.15;14.15;;;6.00;99.90;;;;;;4973617;28;20197;-79
2023/01/26 11:06:51;;;;;;;46.25;15.75;;;5.60;99.90;;;;;;4973315;28;20202;-78
2023/01/26 11:09:20;;;;;;;43.90;13.98;;;5.70;99.90;;;;;;4973839;28;20671;-79
2023/01/26 11:11:56;;;;;;;47.05;15.43;;;5.90;99.90;;;;;;4957479;28;20213;-83
2023/01/26 11:14:22;;;;;;;38.65;15.25;;;6.20;99.90;;;;;;4974085;28;20193;-80
2023/01/26 11:17:21;;;;;;;47.47;16.50;;;6.20;99.90;;;;;;4973898;28;20226;-78
2023/01/26 11:20:06;;;;;;;38.10;14.35;;;6.40;99.90;;;;;;4971929;28;20189;-77
2023/01/26 11:23:10;;;;;;;37.03;15.07;;;6.60;99.90;;;;;;4974168;28;20170;-78
2023/01/26 11:25:42;;;;;;;55.42;16.23;;;7.00;99.90;;;;;;4972163;28;20229;-82
2023/01/26 11:28:16;;;;;;;47.72;16.80;;;7.10;99.90;;;;;;4973660;28;20177;-79
2023/01/26 11:31:06;;;;;;;53.25;16.85;;;7.10;99.90;;;;;;4973562;28;20598;-78
2023/01/26 11:33:38;;;;;;;49.10;16.48;;;6.80;99.90;;;;;;4974311;28;20677;-82
2023/01/26 11:36:54;;;;;;;41.60;14.77;;;6.70;99.90;;;;;;4973240;28;20216;-78
2023/01/26 11:39:20;;;;;;;50.63;16.30;;;6.80;99.90;;;;;;4948073;28;20268;-78
2023/01/26 11:42:04;;;;;;;56.47;17.60;;;6.80;99.90;;;;;;4971747;28;20337;-77
2023/01/26 11:44:36;;;;;;;44.33;15.40;;;6.90;99.90;;;;;;4972969;28;20169;-78
2023/01/26 11:47:15;;;;;;;46.40;15.23;;;7.10;99.90;;;;;;4972166;28;20237;-78
2023/01/26 11:50:18;;;;;;;48.58;15.65;;;6.90;99.90;;;;;;4974752;28;20189;-78
2023/01/26 11:53:21;;;;;;;44.75;15.52;;;6.90;99.90;;;;;;4975166;28;20520;-83
2023/01/26 11:56:14;;;;;;;41.05;13.82;;;6.80;99.90;;;;;;4976730;28;20168;-88
2023/01/26 11:58:47;;;;;;;38.22;14.18;;;7.00;99.90;;;;;;4974724;28;20182;-78
2023/01/26 12:01:21;;;;;;;35.95;14.27;;;7.00;99.90;;;;;;4979967;28;20193;-79
2023/01/26 12:03:49;;;;;;;42.88;13.85;;;6.90;99.90;;;;;;4982896;28;20773;-81
2023/01/26 12:06:36;;;;;;;63.03;15.80;;;7.00;99.90;;;;;;4984255;28;20221;-82
2023/01/26 12:09:22;;;;;;;52.70;13.88;;;6.90;99.90;;;;;;4984871;28;20249;-78
2023/01/26 12:11:52;;;;;;;39.67;13.77;;;6.70;99.90;;;;;;4983015;28;20174;-79
2023/01/26 12:14:24;;;;;;;44.47;14.20;;;6.80;99.90;;;;;;4963122;28;20635;-78
2023/01/26 12:17:09;;;;;;;56.75;14.38;;;6.80;99.90;;;;;;4963848;29;20178;-79
2023/01/26 12:19:43;;;;;;;38.90;13.57;;;7.10;99.90;;;;;;4983665;28;20292;-86
2023/01/26 12:22:27;;;;;;;38.97;12.63;;;7.10;99.90;;;;;;4978935;28;20164;-78
2023/01/26 12:25:02;;;;;;;42.10;12.45;;;7.00;99.90;;;;;;4978568;28;20256;-85
2023/01/26 12:27:39;;;;;;;41.03;11.77;;;7.20;99.90;;;;;;4977020;28;20192;-86
2023/01/26 12:30:23;;;;;;;48.20;11.82;;;7.40;99.90;;;;;;4979594;28;20205;-86
2023/01/26 12:32:49;;;;;;;30.00;9.75;;;7.50;99.90;;;;;;4978849;28;20169;-89
2023/01/26 12:35:20;;;;;;;38.65;9.57;;;7.40;99.90;;;;;;4980918;28;20170;-85
2023/01/26 12:37:59;;;;;;;49.72;9.32;;;7.40;99.90;;;;;;4977888;28;20262;-87
2023/01/26 12:40:42;;;;;;;41.63;9.27;;;7.50;99.90;;;;;;4978632;28;20701;-88
2023/01/26 12:43:23;;;;;;;34.65;7.10;;;7.70;99.90;;;;;;4978177;28;20198;-87
2023/01/26 12:45:53;;;;;;;34.72;7.63;;;7.60;99.90;;;;;;4978126;28;20213;-78
2023/01/26 12:48:30;;;;;;;21.48;6.63;;;7.40;99.90;;;;;;4977695;28;20166;-87
2023/01/26 12:51:02;;;;;;;36.65;6.20;;;7.50;99.90;;;;;;4977587;28;20186;-78
2023/01/26 12:53:38;;;;;;;35.35;5.65;;;7.50;99.90;;;;;;4977673;28;20204;-78
2023/01/26 12:56:10;;;;;;;32.15;5.45;;;7.60;99.90;;;;;;4977573;28;20657;-83
2023/01/26 12:58:44;;;;;;;24.05;4.75;;;7.90;99.90;;;;;;4977508;28;20600;-79
2023/01/26 13:01:13;;;;;;;31.10;5.57;;;8.00;99.90;;;;;;4977925;28;20205;-79
2023/01/26 13:03:42;;;;;;;23.88;5.78;;;7.80;99.90;;;;;;4977340;28;20170;-79
2023/01/26 13:06:14;;;;;;;30.10;4.43;;;8.00;99.90;;;;;;4977795;28;20205;-81
2023/01/26 13:08:59;;;;;;;22.27;4.18;;;8.00;99.90;;;;;;4977467;28;20534;-88
2023/01/26 13:11:49;;;;;;;21.58;4.05;;;7.90;99.90;;;;;;4977508;28;20204;-86
2023/01/26 13:14:56;;;;;;;14.80;3.70;;;8.10;99.90;;;;;;4977429;28;20173;-79
2023/01/26 13:17:22;;;;;;;33.13;4.20;;;8.30;99.90;;;;;;4976980;28;20189;-82
2023/01/26 13:19:52;;;;;;;13.90;4.85;;;8.30;99.90;;;;;;4977080;28;20196;-86
2023/01/26 13:22:18;;;;;;;31.45;3.88;;;8.30;99.90;;;;;;4976684;28;20169;-83
2023/01/26 13:24:55;;;;;;;20.38;3.72;;;8.30;99.90;;;;;;4976173;28;20178;-78
2023/01/26 13:27:39;;;;;;;11.98;2.58;;;8.40;99.90;;;;;;4976858;28;20181;-85
2023/01/26 13:30:26;;;;;;;22.55;2.53;;;8.20;99.90;;;;;;4976609;28;20205;-79
2023/01/26 13:33:11;;;;;;;18.13;2.60;;;8.20;99.90;;;;;;4976600;28;20173;-82
2023/01/26 13:35:37;;;;;;;17.27;2.92;;;8.20;99.90;;;;;;4977045;28;20166;-84
2023/01/26 13:38:15;;;;;;;18.13;2.13;;;8.10;99.90;;;;;;4976779;28;20252;-86